sensor_id;sensor_type;location;lat;lon;timestamp;P1;durP1;ratioP1;P2;durP2;ratioP2
63943;SDS011;50121;51.218;7.664;2023-07-29T00:01:46;6.65;;;6.05;;
63943;SDS011;50121;51.218;7.664;2023-07-29T00:04:15;5.93;;;5.53;;
63943;SDS011;50121;51.218;7.664;2023-07-29T00:06:43;6.30;;;5.70;;
63943;SDS011;50121;51.218;7.664;2023-07-29T00:09:10;5.97;;;5.38;;
63943;SDS011;50121;51.218;7.664;2023-07-29T00:11:39;5.43;;;4.93;;
63943;SDS011;50121;51.218;7.664;2023-07-29T00:14:06;5.68;;;5.28;;
63943;SDS011;50121;51.218;7.664;2023-07-29T00:16:34;5.93;;;5.43;;
63943;SDS011;50121;51.218;7.664;2023-07-29T00:19:02;5.70;;;5.30;;
63943;SDS011;50121;51.218;7.664;2023-07-29T00:21:30;5.72;;;5.32;;
63943;SDS011;50121;51.218;7.664;2023-07-29T00:23:57;5.57;;;5.18;;
63943;SDS011;50121;51.218;7.664;2023-07-29T00:26:25;6.05;;;5.32;;
63943;SDS011;50121;51.218;7.664;2023-07-29T00:28:55;5.78;;;5.25;;
63943;SDS011;50121;51.218;7.664;2023-07-29T00:31:23;5.70;;;5.20;;
63943;SDS011;50121;51.218;7.664;2023-07-29T00:33:50;6.45;;;5.85;;
63943;SDS011;50121;51.218;7.664;2023-07-29T00:36:19;6.05;;;5.45;;
63943;SDS011;50121;51.218;7.664;2023-07-29T00:38:47;6.50;;;5.50;;
63943;SDS011;50121;51.218;7.664;2023-07-29T00:41:14;5.50;;;5.10;;
63943;SDS011;50121;51.218;7.664;2023-07-29T00:43:42;6.68;;;5.47;;
63943;SDS011;50121;51.218;7.664;2023-07-29T00:46:10;6.00;;;5.50;;
63943;SDS011;50121;51.218;7.664;2023-07-29T00:48:39;6.45;;;5.95;;
63943;SDS011;50121;51.218;7.664;2023-07-29T00:51:07;6.68;;;6.07;;
63943;SDS011;50121;51.218;7.664;2023-07-29T00:53:34;6.38;;;5.78;;
63943;SDS011;50121;51.218;7.664;2023-07-29T00:56:02;6.45;;;5.95;;
63943;SDS011;50121;51.218;7.664;2023-07-29T00:58:29;7.55;;;5.95;;
63943;SDS011;50121;51.218;7.664;2023-07-29T01:00:57;7.25;;;5.93;;
63943;SDS011;50121;51.218;7.664;2023-07-29T01:03:25;6.63;;;6.05;;
63943;SDS011;50121;51.218;7.664;2023-07-29T01:06:14;6.75;;;6.15;;
63943;SDS011;50121;51.218;7.664;2023-07-29T01:11:23;7.07;;;6.47;;
63943;SDS011;50121;51.218;7.664;2023-07-29T01:13:54;6.50;;;6.00;;
63943;SDS011;50121;51.218;7.664;2023-07-29T01:18:54;6.88;;;6.30;;
63943;SDS011;50121;51.218;7.664;2023-07-29T01:21:22;6.82;;;6.15;;
63943;SDS011;50121;51.218;7.664;2023-07-29T01:23:58;6.50;;;6.00;;
63943;SDS011;50121;51.218;7.664;2023-07-29T01:26:26;6.50;;;5.85;;
63943;SDS011;50121;51.218;7.664;2023-07-29T01:28:56;6.18;;;5.72;;
63943;SDS011;50121;51.218;7.664;2023-07-29T01:31:30;5.82;;;5.38;;
63943;SDS011;50121;51.218;7.664;2023-07-29T01:34:09;5.85;;;5.35;;
63943;SDS011;50121;51.218;7.664;2023-07-29T01:36:39;5.72;;;5.00;;
63943;SDS011;50121;51.218;7.664;2023-07-29T01:39:10;5.10;;;4.70;;
63943;SDS011;50121;51.218;7.664;2023-07-29T01:41:38;4.82;;;4.53;;
63943;SDS011;50121;51.218;7.664;2023-07-29T01:44:07;4.75;;;4.43;;
63943;SDS011;50121;51.218;7.664;2023-07-29T01:46:35;4.40;;;4.10;;
63943;SDS011;50121;51.218;7.664;2023-07-29T01:49:02;4.55;;;4.13;;
63943;SDS011;50121;51.218;7.664;2023-07-29T01:51:30;4.57;;;4.10;;
63943;SDS011;50121;51.218;7.664;2023-07-29T01:53:58;4.45;;;4.15;;
63943;SDS011;50121;51.218;7.664;2023-07-29T01:56:26;4.60;;;4.30;;
63943;SDS011;50121;51.218;7.664;2023-07-29T01:58:55;3.83;;;3.63;;
63943;SDS011;50121;51.218;7.664;2023-07-29T02:01:23;4.05;;;3.85;;
63943;SDS011;50121;51.218;7.664;2023-07-29T02:03:54;3.70;;;3.50;;
63943;SDS011;50121;51.218;7.664;2023-07-29T02:06:22;3.72;;;3.50;;
63943;SDS011;50121;51.218;7.664;2023-07-29T02:08:52;3.97;;;3.67;;
63943;SDS011;50121;51.218;7.664;2023-07-29T02:11:20;3.80;;;3.50;;
63943;SDS011;50121;51.218;7.664;2023-07-29T02:13:54;6.03;;;3.90;;
63943;SDS011;50121;51.218;7.664;2023-07-29T02:16:22;3.83;;;3.63;;
63943;SDS011;50121;51.218;7.664;2023-07-29T02:18:50;4.10;;;3.80;;
63943;SDS011;50121;51.218;7.664;2023-07-29T02:21:19;4.10;;;3.80;;
63943;SDS011;50121;51.218;7.664;2023-07-29T02:23:47;4.20;;;3.92;;
63943;SDS011;50121;51.218;7.664;2023-07-29T02:26:14;3.80;;;3.60;;
63943;SDS011;50121;51.218;7.664;2023-07-29T02:28:42;3.80;;;3.50;;
63943;SDS011;50121;51.218;7.664;2023-07-29T02:33:37;3.92;;;3.67;;
63943;SDS011;50121;51.218;7.664;2023-07-29T02:36:04;3.90;;;3.60;;
63943;SDS011;50121;51.218;7.664;2023-07-29T02:38:32;4.05;;;3.70;;
63943;SDS011;50121;51.218;7.664;2023-07-29T02:41:00;3.78;;;3.58;;
63943;SDS011;50121;51.218;7.664;2023-07-29T02:43:27;3.50;;;3.30;;
63943;SDS011;50121;51.218;7.664;2023-07-29T02:45:55;3.75;;;3.55;;
63943;SDS011;50121;51.218;7.664;2023-07-29T02:48:22;4.25;;;3.85;;
63943;SDS011;50121;51.218;7.664;2023-07-29T02:50:50;4.63;;;4.32;;
63943;SDS011;50121;51.218;7.664;2023-07-29T02:53:17;4.35;;;4.05;;
63943;SDS011;50121;51.218;7.664;2023-07-29T02:55:45;5.00;;;4.70;;
63943;SDS011;50121;51.218;7.664;2023-07-29T02:58:12;5.10;;;4.60;;
63943;SDS011;50121;51.218;7.664;2023-07-29T03:00:41;5.10;;;4.80;;
63943;SDS011;50121;51.218;7.664;2023-07-29T03:03:09;5.15;;;4.75;;
63943;SDS011;50121;51.218;7.664;2023-07-29T03:05:37;5.40;;;5.00;;
63943;SDS011;50121;51.218;7.664;2023-07-29T03:08:05;5.55;;;5.05;;
63943;SDS011;50121;51.218;7.664;2023-07-29T03:10:34;5.63;;;5.13;;
63943;SDS011;50121;51.218;7.664;2023-07-29T03:13:02;5.93;;;5.45;;
63943;SDS011;50121;51.218;7.664;2023-07-29T03:15:30;6.40;;;4.90;;
63943;SDS011;50121;51.218;7.664;2023-07-29T03:17:58;5.70;;;5.30;;
63943;SDS011;50121;51.218;7.664;2023-07-29T03:20:25;5.50;;;5.10;;
63943;SDS011;50121;51.218;7.664;2023-07-29T03:22:53;5.97;;;5.38;;
63943;SDS011;50121;51.218;7.664;2023-07-29T03:25:24;6.85;;;5.78;;
63943;SDS011;50121;51.218;7.664;2023-07-29T03:27:55;5.80;;;5.40;;
63943;SDS011;50121;51.218;7.664;2023-07-29T03:30:22;5.80;;;5.40;;
63943;SDS011;50121;51.218;7.664;2023-07-29T03:32:53;5.40;;;5.10;;
63943;SDS011;50121;51.218;7.664;2023-07-29T03:35:21;5.63;;;5.20;;
63943;SDS011;50121;51.218;7.664;2023-07-29T03:37:48;5.30;;;4.80;;
63943;SDS011;50121;51.218;7.664;2023-07-29T03:40:16;6.30;;;4.68;;
63943;SDS011;50121;51.218;7.664;2023-07-29T03:42:44;5.43;;;4.90;;
63943;SDS011;50121;51.218;7.664;2023-07-29T03:45:12;5.40;;;5.00;;
63943;SDS011;50121;51.218;7.664;2023-07-29T03:47:40;4.90;;;4.50;;
63943;SDS011;50121;51.218;7.664;2023-07-29T03:50:08;4.72;;;4.00;;
63943;SDS011;50121;51.218;7.664;2023-07-29T03:52:35;4.60;;;4.30;;
63943;SDS011;50121;51.218;7.664;2023-07-29T03:55:03;3.50;;;3.30;;
63943;SDS011;50121;51.218;7.664;2023-07-29T03:57:31;3.67;;;3.47;;
63943;SDS011;50121;51.218;7.664;2023-07-29T03:59:58;4.20;;;3.80;;
63943;SDS011;50121;51.218;7.664;2023-07-29T04:02:26;4.70;;;4.28;;
63943;SDS011;50121;51.218;7.664;2023-07-29T04:04:53;4.05;;;3.85;;
63943;SDS011;50121;51.218;7.664;2023-07-29T04:07:21;4.18;;;3.88;;
63943;SDS011;50121;51.218;7.664;2023-07-29T04:09:48;4.28;;;3.92;;
63943;SDS011;50121;51.218;7.664;2023-07-29T04:12:16;4.65;;;4.20;;
63943;SDS011;50121;51.218;7.664;2023-07-29T04:14:47;4.95;;;4.45;;
63943;SDS011;50121;51.218;7.664;2023-07-29T04:17:15;4.93;;;4.53;;
63943;SDS011;50121;51.218;7.664;2023-07-29T04:19:42;5.13;;;4.72;;
63943;SDS011;50121;51.218;7.664;2023-07-29T04:22:10;5.45;;;4.95;;
63943;SDS011;50121;51.218;7.664;2023-07-29T04:24:38;5.90;;;4.93;;
63943;SDS011;50121;51.218;7.664;2023-07-29T04:27:05;5.43;;;4.72;;
63943;SDS011;50121;51.218;7.664;2023-07-29T04:29:33;4.97;;;4.32;;
63943;SDS011;50121;51.218;7.664;2023-07-29T04:32:05;5.20;;;4.70;;
63943;SDS011;50121;51.218;7.664;2023-07-29T04:34:33;4.35;;;4.05;;
63943;SDS011;50121;51.218;7.664;2023-07-29T04:37:01;4.38;;;4.07;;
63943;SDS011;50121;51.218;7.664;2023-07-29T04:39:29;4.88;;;4.57;;
63943;SDS011;50121;51.218;7.664;2023-07-29T04:41:56;5.68;;;5.28;;
63943;SDS011;50121;51.218;7.664;2023-07-29T04:44:24;5.50;;;5.10;;
63943;SDS011;50121;51.218;7.664;2023-07-29T04:46:52;6.32;;;5.72;;
63943;SDS011;50121;51.218;7.664;2023-07-29T04:49:20;12.63;;;11.55;;
63943;SDS011;50121;51.218;7.664;2023-07-29T04:51:47;20.70;;;8.68;;
63943;SDS011;50121;51.218;7.664;2023-07-29T04:54:15;9.10;;;8.20;;
63943;SDS011;50121;51.218;7.664;2023-07-29T04:56:43;12.20;;;8.70;;
63943;SDS011;50121;51.218;7.664;2023-07-29T04:59:10;10.38;;;8.63;;
63943;SDS011;50121;51.218;7.664;2023-07-29T05:01:39;11.27;;;8.90;;
63943;SDS011;50121;51.218;7.664;2023-07-29T05:04:09;9.80;;;8.80;;
63943;SDS011;50121;51.218;7.664;2023-07-29T05:06:36;10.30;;;9.30;;
63943;SDS011;50121;51.218;7.664;2023-07-29T05:09:17;13.02;;;10.00;;
63943;SDS011;50121;51.218;7.664;2023-07-29T05:11:44;12.05;;;10.77;;
63943;SDS011;50121;51.218;7.664;2023-07-29T05:14:12;14.82;;;12.38;;
63943;SDS011;50121;51.218;7.664;2023-07-29T05:16:41;14.30;;;10.27;;
63943;SDS011;50121;51.218;7.664;2023-07-29T05:19:09;13.77;;;10.75;;
63943;SDS011;50121;51.218;7.664;2023-07-29T05:21:36;13.65;;;10.95;;
63943;SDS011;50121;51.218;7.664;2023-07-29T05:24:04;14.07;;;10.90;;
63943;SDS011;50121;51.218;7.664;2023-07-29T05:26:32;15.15;;;10.95;;
63943;SDS011;50121;51.218;7.664;2023-07-29T05:29:00;14.52;;;10.80;;
63943;SDS011;50121;51.218;7.664;2023-07-29T05:31:27;13.63;;;11.35;;
63943;SDS011;50121;51.218;7.664;2023-07-29T05:33:55;13.38;;;11.45;;
63943;SDS011;50121;51.218;7.664;2023-07-29T05:36:23;15.93;;;12.55;;
63943;SDS011;50121;51.218;7.664;2023-07-29T05:38:51;15.48;;;12.20;;
63943;SDS011;50121;51.218;7.664;2023-07-29T05:41:19;14.57;;;11.85;;
63943;SDS011;50121;51.218;7.664;2023-07-29T05:43:46;14.20;;;11.57;;
63943;SDS011;50121;51.218;7.664;2023-07-29T05:46:14;13.90;;;11.23;;
63943;SDS011;50121;51.218;7.664;2023-07-29T05:48:42;15.45;;;11.48;;
63943;SDS011;50121;51.218;7.664;2023-07-29T05:51:09;16.00;;;11.85;;
63943;SDS011;50121;51.218;7.664;2023-07-29T05:53:37;16.92;;;11.65;;
63943;SDS011;50121;51.218;7.664;2023-07-29T05:56:04;15.93;;;12.00;;
63943;SDS011;50121;51.218;7.664;2023-07-29T05:58:32;14.68;;;11.43;;
63943;SDS011;50121;51.218;7.664;2023-07-29T06:01:00;16.70;;;11.48;;
63943;SDS011;50121;51.218;7.664;2023-07-29T06:03:28;13.48;;;11.10;;
63943;SDS011;50121;51.218;7.664;2023-07-29T06:05:55;13.82;;;11.23;;
63943;SDS011;50121;51.218;7.664;2023-07-29T06:08:23;13.25;;;10.60;;
63943;SDS011;50121;51.218;7.664;2023-07-29T06:10:51;13.30;;;10.85;;
63943;SDS011;50121;51.218;7.664;2023-07-29T06:13:18;11.75;;;10.48;;
63943;SDS011;50121;51.218;7.664;2023-07-29T06:15:46;12.00;;;9.75;;
63943;SDS011;50121;51.218;7.664;2023-07-29T06:18:13;12.70;;;11.18;;
63943;SDS011;50121;51.218;7.664;2023-07-29T06:20:41;10.93;;;9.82;;
63943;SDS011;50121;51.218;7.664;2023-07-29T06:23:08;11.07;;;9.85;;
63943;SDS011;50121;51.218;7.664;2023-07-29T06:25:36;10.63;;;9.25;;
63943;SDS011;50121;51.218;7.664;2023-07-29T06:28:03;10.65;;;8.60;;
63943;SDS011;50121;51.218;7.664;2023-07-29T06:30:31;10.35;;;8.60;;
63943;SDS011;50121;51.218;7.664;2023-07-29T06:32:59;10.65;;;8.48;;
63943;SDS011;50121;51.218;7.664;2023-07-29T06:35:26;8.65;;;7.72;;
63943;SDS011;50121;51.218;7.664;2023-07-29T06:37:54;8.15;;;7.35;;
63943;SDS011;50121;51.218;7.664;2023-07-29T06:40:21;8.50;;;7.60;;
63943;SDS011;50121;51.218;7.664;2023-07-29T06:42:49;7.82;;;7.03;;
63943;SDS011;50121;51.218;7.664;2023-07-29T06:45:16;9.27;;;8.13;;
63943;SDS011;50121;51.218;7.664;2023-07-29T06:47:44;8.45;;;7.60;;
63943;SDS011;50121;51.218;7.664;2023-07-29T06:50:12;7.45;;;6.70;;
63943;SDS011;50121;51.218;7.664;2023-07-29T06:52:39;7.53;;;6.88;;
63943;SDS011;50121;51.218;7.664;2023-07-29T06:55:07;7.47;;;6.78;;
63943;SDS011;50121;51.218;7.664;2023-07-29T06:57:34;7.07;;;6.40;;
63943;SDS011;50121;51.218;7.664;2023-07-29T07:00:02;7.20;;;6.55;;
63943;SDS011;50121;51.218;7.664;2023-07-29T07:02:30;7.40;;;6.78;;
63943;SDS011;50121;51.218;7.664;2023-07-29T07:04:58;7.55;;;6.95;;
63943;SDS011;50121;51.218;7.664;2023-07-29T07:07:25;7.25;;;6.65;;
63943;SDS011;50121;51.218;7.664;2023-07-29T07:09:53;8.07;;;6.93;;
63943;SDS011;50121;51.218;7.664;2023-07-29T07:12:21;7.72;;;7.03;;
63943;SDS011;50121;51.218;7.664;2023-07-29T07:14:48;7.97;;;7.10;;
63943;SDS011;50121;51.218;7.664;2023-07-29T07:17:16;7.50;;;6.88;;
63943;SDS011;50121;51.218;7.664;2023-07-29T07:19:44;7.78;;;7.07;;
63943;SDS011;50121;51.218;7.664;2023-07-29T07:22:12;7.80;;;7.10;;
63943;SDS011;50121;51.218;7.664;2023-07-29T07:24:40;8.02;;;7.22;;
63943;SDS011;50121;51.218;7.664;2023-07-29T07:27:07;6.60;;;6.10;;
63943;SDS011;50121;51.218;7.664;2023-07-29T07:29:35;7.18;;;6.50;;
63943;SDS011;50121;51.218;7.664;2023-07-29T07:32:03;6.50;;;6.00;;
63943;SDS011;50121;51.218;7.664;2023-07-29T07:34:30;7.50;;;6.90;;
63943;SDS011;50121;51.218;7.664;2023-07-29T07:36:59;7.97;;;6.20;;
63943;SDS011;50121;51.218;7.664;2023-07-29T07:39:27;7.07;;;6.38;;
63943;SDS011;50121;51.218;7.664;2023-07-29T07:41:55;6.25;;;5.65;;
63943;SDS011;50121;51.218;7.664;2023-07-29T07:44:23;7.25;;;6.63;;
63943;SDS011;50121;51.218;7.664;2023-07-29T07:46:59;7.15;;;6.45;;
63943;SDS011;50121;51.218;7.664;2023-07-29T07:49:28;7.07;;;6.38;;
63943;SDS011;50121;51.218;7.664;2023-07-29T07:51:56;7.95;;;7.20;;
63943;SDS011;50121;51.218;7.664;2023-07-29T07:54:23;8.40;;;7.60;;
63943;SDS011;50121;51.218;7.664;2023-07-29T07:56:50;8.52;;;7.82;;
63943;SDS011;50121;51.218;7.664;2023-07-29T07:59:18;9.93;;;7.20;;
63943;SDS011;50121;51.218;7.664;2023-07-29T08:01:46;7.30;;;6.70;;
63943;SDS011;50121;51.218;7.664;2023-07-29T08:04:13;6.63;;;6.13;;
63943;SDS011;50121;51.218;7.664;2023-07-29T08:06:41;7.20;;;6.60;;
63943;SDS011;50121;51.218;7.664;2023-07-29T08:09:08;8.43;;;6.70;;
63943;SDS011;50121;51.218;7.664;2023-07-29T08:11:36;7.97;;;6.25;;
63943;SDS011;50121;51.218;7.664;2023-07-29T08:14:04;6.10;;;5.70;;
63943;SDS011;50121;51.218;7.664;2023-07-29T08:16:31;6.03;;;5.53;;
63943;SDS011;50121;51.218;7.664;2023-07-29T08:18:59;6.40;;;5.40;;
63943;SDS011;50121;51.218;7.664;2023-07-29T08:21:27;6.40;;;5.95;;
63943;SDS011;50121;51.218;7.664;2023-07-29T08:23:54;6.82;;;5.20;;
63943;SDS011;50121;51.218;7.664;2023-07-29T08:26:22;5.78;;;5.35;;
63943;SDS011;50121;51.218;7.664;2023-07-29T08:28:49;5.65;;;5.35;;
63943;SDS011;50121;51.218;7.664;2023-07-29T08:31:18;6.25;;;5.82;;
63943;SDS011;50121;51.218;7.664;2023-07-29T08:33:46;5.90;;;5.50;;
63943;SDS011;50121;51.218;7.664;2023-07-29T08:36:13;5.60;;;5.30;;
63943;SDS011;50121;51.218;7.664;2023-07-29T08:38:41;5.70;;;5.40;;
63943;SDS011;50121;51.218;7.664;2023-07-29T08:44:11;5.70;;;5.30;;
63943;SDS011;50121;51.218;7.664;2023-07-29T08:46:38;5.10;;;4.70;;
63943;SDS011;50121;51.218;7.664;2023-07-29T08:49:06;5.60;;;5.20;;
63943;SDS011;50121;51.218;7.664;2023-07-29T08:51:34;5.65;;;5.35;;
63943;SDS011;50121;51.218;7.664;2023-07-29T08:54:02;6.25;;;5.85;;
63943;SDS011;50121;51.218;7.664;2023-07-29T08:56:30;6.82;;;6.32;;
63943;SDS011;50121;51.218;7.664;2023-07-29T08:58:58;5.50;;;5.20;;
63943;SDS011;50121;51.218;7.664;2023-07-29T09:01:28;6.38;;;5.97;;
63943;SDS011;50121;51.218;7.664;2023-07-29T09:03:57;6.03;;;5.63;;
63943;SDS011;50121;51.218;7.664;2023-07-29T09:06:24;5.70;;;5.30;;
63943;SDS011;50121;51.218;7.664;2023-07-29T09:08:55;5.55;;;5.05;;
63943;SDS011;50121;51.218;7.664;2023-07-29T09:11:25;5.00;;;4.60;;
63943;SDS011;50121;51.218;7.664;2023-07-29T09:13:53;5.40;;;4.78;;
63943;SDS011;50121;51.218;7.664;2023-07-29T09:16:21;5.40;;;5.10;;
63943;SDS011;50121;51.218;7.664;2023-07-29T09:18:49;5.50;;;5.20;;
63943;SDS011;50121;51.218;7.664;2023-07-29T09:21:17;5.38;;;5.07;;
63943;SDS011;50121;51.218;7.664;2023-07-29T09:23:45;5.70;;;5.40;;
63943;SDS011;50121;51.218;7.664;2023-07-29T09:26:12;8.23;;;7.72;;
63943;SDS011;50121;51.218;7.664;2023-07-29T09:28:40;6.60;;;6.20;;
63943;SDS011;50121;51.218;7.664;2023-07-29T09:31:13;6.47;;;5.97;;
63943;SDS011;50121;51.218;7.664;2023-07-29T09:33:46;6.00;;;5.60;;
63943;SDS011;50121;51.218;7.664;2023-07-29T09:36:13;7.55;;;6.95;;
63943;SDS011;50121;51.218;7.664;2023-07-29T09:38:41;6.60;;;6.10;;
63943;SDS011;50121;51.218;7.664;2023-07-29T09:41:09;6.60;;;6.20;;
63943;SDS011;50121;51.218;7.664;2023-07-29T09:43:38;6.30;;;5.90;;
63943;SDS011;50121;51.218;7.664;2023-07-29T09:46:06;7.18;;;6.65;;
63943;SDS011;50121;51.218;7.664;2023-07-29T09:48:37;6.15;;;5.75;;
63943;SDS011;50121;51.218;7.664;2023-07-29T09:51:11;5.93;;;5.53;;
63943;SDS011;50121;51.218;7.664;2023-07-29T09:53:43;6.50;;;6.00;;
63943;SDS011;50121;51.218;7.664;2023-07-29T09:56:13;6.60;;;6.10;;
63943;SDS011;50121;51.218;7.664;2023-07-29T09:58:41;5.82;;;5.53;;
63943;SDS011;50121;51.218;7.664;2023-07-29T10:01:09;5.80;;;5.30;;
63943;SDS011;50121;51.218;7.664;2023-07-29T10:03:37;7.10;;;5.60;;
63943;SDS011;50121;51.218;7.664;2023-07-29T10:06:05;6.00;;;5.60;;
63943;SDS011;50121;51.218;7.664;2023-07-29T10:08:33;5.55;;;5.15;;
63943;SDS011;50121;51.218;7.664;2023-07-29T10:11:08;5.93;;;5.50;;
63943;SDS011;50121;51.218;7.664;2023-07-29T10:13:36;5.32;;;5.03;;
63943;SDS011;50121;51.218;7.664;2023-07-29T10:16:04;5.35;;;5.03;;
63943;SDS011;50121;51.218;7.664;2023-07-29T10:18:32;5.70;;;5.30;;
63943;SDS011;50121;51.218;7.664;2023-07-29T10:21:00;6.00;;;5.50;;
63943;SDS011;50121;51.218;7.664;2023-07-29T10:23:31;5.80;;;5.47;;
63943;SDS011;50121;51.218;7.664;2023-07-29T10:26:03;5.90;;;5.50;;
63943;SDS011;50121;51.218;7.664;2023-07-29T10:28:32;5.70;;;5.30;;
63943;SDS011;50121;51.218;7.664;2023-07-29T10:31:01;7.25;;;6.65;;
63943;SDS011;50121;51.218;7.664;2023-07-29T10:33:36;5.82;;;5.28;;
63943;SDS011;50121;51.218;7.664;2023-07-29T10:36:05;5.72;;;5.32;;
63943;SDS011;50121;51.218;7.664;2023-07-29T10:38:32;5.65;;;5.25;;
63943;SDS011;50121;51.218;7.664;2023-07-29T10:41:00;6.28;;;5.82;;
63943;SDS011;50121;51.218;7.664;2023-07-29T10:43:35;5.97;;;5.57;;
63943;SDS011;50121;51.218;7.664;2023-07-29T10:46:22;6.20;;;5.80;;
63943;SDS011;50121;51.218;7.664;2023-07-29T10:54:12;6.30;;;5.80;;
63943;SDS011;50121;51.218;7.664;2023-07-29T10:56:41;7.50;;;7.00;;
63943;SDS011;50121;51.218;7.664;2023-07-29T11:01:54;6.90;;;6.40;;
63943;SDS011;50121;51.218;7.664;2023-07-29T11:04:25;6.40;;;6.00;;
63943;SDS011;50121;51.218;7.664;2023-07-29T11:12:53;6.57;;;6.13;;
63943;SDS011;50121;51.218;7.664;2023-07-29T11:14:55;6.50;;;6.10;;
63943;SDS011;50121;51.218;7.664;2023-07-29T11:17:23;6.53;;;6.03;;
63943;SDS011;50121;51.218;7.664;2023-07-29T11:19:50;7.93;;;7.22;;
63943;SDS011;50121;51.218;7.664;2023-07-29T11:22:18;7.20;;;6.70;;
63943;SDS011;50121;51.218;7.664;2023-07-29T11:24:45;6.50;;;6.10;;
63943;SDS011;50121;51.218;7.664;2023-07-29T11:27:13;6.53;;;6.03;;
63943;SDS011;50121;51.218;7.664;2023-07-29T11:29:40;6.30;;;5.80;;
63943;SDS011;50121;51.218;7.664;2023-07-29T11:32:09;6.38;;;5.78;;
63943;SDS011;50121;51.218;7.664;2023-07-29T11:34:36;6.40;;;5.93;;
63943;SDS011;50121;51.218;7.664;2023-07-29T11:37:04;6.30;;;5.85;;
63943;SDS011;50121;51.218;7.664;2023-07-29T11:39:33;6.25;;;5.85;;
63943;SDS011;50121;51.218;7.664;2023-07-29T11:42:00;6.35;;;5.95;;
63943;SDS011;50121;51.218;7.664;2023-07-29T11:44:28;6.85;;;6.35;;
63943;SDS011;50121;51.218;7.664;2023-07-29T11:46:55;7.43;;;6.75;;
63943;SDS011;50121;51.218;7.664;2023-07-29T11:49:24;7.30;;;6.80;;
63943;SDS011;50121;51.218;7.664;2023-07-29T11:51:51;7.40;;;6.90;;
63943;SDS011;50121;51.218;7.664;2023-07-29T11:54:20;7.68;;;6.93;;
63943;SDS011;50121;51.218;7.664;2023-07-29T11:56:48;7.32;;;6.80;;
63943;SDS011;50121;51.218;7.664;2023-07-29T11:59:15;7.15;;;6.65;;
63943;SDS011;50121;51.218;7.664;2023-07-29T12:01:43;7.22;;;6.60;;
63943;SDS011;50121;51.218;7.664;2023-07-29T12:04:10;5.35;;;5.00;;
63943;SDS011;50121;51.218;7.664;2023-07-29T12:06:38;7.00;;;6.45;;
63943;SDS011;50121;51.218;7.664;2023-07-29T12:09:06;7.30;;;6.80;;
63943;SDS011;50121;51.218;7.664;2023-07-29T12:11:34;7.20;;;6.70;;
63943;SDS011;50121;51.218;7.664;2023-07-29T12:14:01;7.40;;;6.72;;
63943;SDS011;50121;51.218;7.664;2023-07-29T12:16:29;7.63;;;7.10;;
63943;SDS011;50121;51.218;7.664;2023-07-29T12:19:01;6.97;;;6.57;;
63943;SDS011;50121;51.218;7.664;2023-07-29T12:21:28;7.70;;;7.28;;
63943;SDS011;50121;51.218;7.664;2023-07-29T12:23:56;8.02;;;7.53;;
63943;SDS011;50121;51.218;7.664;2023-07-29T12:26:29;7.72;;;7.22;;
63943;SDS011;50121;51.218;7.664;2023-07-29T12:28:56;8.07;;;7.45;;
63943;SDS011;50121;51.218;7.664;2023-07-29T12:31:30;8.05;;;7.55;;
63943;SDS011;50121;51.218;7.664;2023-07-29T12:33:59;8.15;;;7.63;;
63943;SDS011;50121;51.218;7.664;2023-07-29T12:36:42;8.77;;;8.23;;
63943;SDS011;50121;51.218;7.664;2023-07-29T12:41:37;8.07;;;7.57;;
63943;SDS011;50121;51.218;7.664;2023-07-29T12:44:05;7.15;;;6.63;;
63943;SDS011;50121;51.218;7.664;2023-07-29T12:46:32;7.45;;;6.95;;
63943;SDS011;50121;51.218;7.664;2023-07-29T12:49:00;8.02;;;7.53;;
63943;SDS011;50121;51.218;7.664;2023-07-29T12:51:27;8.13;;;7.47;;
63943;SDS011;50121;51.218;7.664;2023-07-29T12:53:55;30.35;;;27.17;;
63943;SDS011;50121;51.218;7.664;2023-07-29T12:56:22;10.63;;;9.90;;
63943;SDS011;50121;51.218;7.664;2023-07-29T12:58:50;8.43;;;7.88;;
63943;SDS011;50121;51.218;7.664;2023-07-29T13:01:17;8.10;;;7.50;;
63943;SDS011;50121;51.218;7.664;2023-07-29T13:03:45;8.20;;;7.53;;
63943;SDS011;50121;51.218;7.664;2023-07-29T13:06:12;7.50;;;7.10;;
63943;SDS011;50121;51.218;7.664;2023-07-29T13:08:40;7.50;;;7.00;;
63943;SDS011;50121;51.218;7.664;2023-07-29T13:11:07;7.43;;;7.03;;
63943;SDS011;50121;51.218;7.664;2023-07-29T13:13:35;7.60;;;7.18;;
63943;SDS011;50121;51.218;7.664;2023-07-29T13:16:03;7.75;;;7.25;;
63943;SDS011;50121;51.218;7.664;2023-07-29T13:18:30;7.80;;;7.13;;
63943;SDS011;50121;51.218;7.664;2023-07-29T13:20:58;7.35;;;6.78;;
63943;SDS011;50121;51.218;7.664;2023-07-29T13:23:26;7.47;;;6.95;;
63943;SDS011;50121;51.218;7.664;2023-07-29T13:25:57;7.88;;;7.28;;
63943;SDS011;50121;51.218;7.664;2023-07-29T13:28:25;7.53;;;7.03;;
63943;SDS011;50121;51.218;7.664;2023-07-29T13:30:53;7.68;;;7.22;;
63943;SDS011;50121;51.218;7.664;2023-07-29T13:33:21;7.35;;;6.88;;
63943;SDS011;50121;51.218;7.664;2023-07-29T13:35:49;7.28;;;6.85;;
63943;SDS011;50121;51.218;7.664;2023-07-29T13:38:17;7.10;;;6.70;;
63943;SDS011;50121;51.218;7.664;2023-07-29T13:40:46;7.28;;;6.78;;
63943;SDS011;50121;51.218;7.664;2023-07-29T13:43:14;6.90;;;6.40;;
63943;SDS011;50121;51.218;7.664;2023-07-29T13:45:41;7.78;;;7.18;;
63943;SDS011;50121;51.218;7.664;2023-07-29T13:48:09;7.32;;;6.72;;
63943;SDS011;50121;51.218;7.664;2023-07-29T13:50:36;8.25;;;7.65;;
63943;SDS011;50121;51.218;7.664;2023-07-29T13:53:04;7.75;;;7.25;;
63943;SDS011;50121;51.218;7.664;2023-07-29T13:55:31;8.07;;;7.50;;
63943;SDS011;50121;51.218;7.664;2023-07-29T13:57:59;7.35;;;6.82;;
63943;SDS011;50121;51.218;7.664;2023-07-29T14:00:26;7.15;;;6.75;;
63943;SDS011;50121;51.218;7.664;2023-07-29T14:02:54;7.10;;;6.60;;
63943;SDS011;50121;51.218;7.664;2023-07-29T14:05:22;6.82;;;6.35;;
63943;SDS011;50121;51.218;7.664;2023-07-29T14:07:49;7.10;;;6.70;;
63943;SDS011;50121;51.218;7.664;2023-07-29T14:10:17;7.35;;;6.80;;
63943;SDS011;50121;51.218;7.664;2023-07-29T14:12:45;8.10;;;7.50;;
63943;SDS011;50121;51.218;7.664;2023-07-29T14:15:12;7.55;;;7.05;;
63943;SDS011;50121;51.218;7.664;2023-07-29T14:17:40;7.20;;;6.70;;
63943;SDS011;50121;51.218;7.664;2023-07-29T14:20:07;7.10;;;6.60;;
63943;SDS011;50121;51.218;7.664;2023-07-29T14:22:35;7.43;;;7.03;;
63943;SDS011;50121;51.218;7.664;2023-07-29T14:25:03;6.65;;;6.25;;
63943;SDS011;50121;51.218;7.664;2023-07-29T14:27:31;7.47;;;6.88;;
63943;SDS011;50121;51.218;7.664;2023-07-29T14:29:58;6.95;;;6.45;;
63943;SDS011;50121;51.218;7.664;2023-07-29T14:32:26;7.05;;;6.55;;
63943;SDS011;50121;51.218;7.664;2023-07-29T14:34:53;6.78;;;6.38;;
63943;SDS011;50121;51.218;7.664;2023-07-29T14:37:21;7.53;;;7.03;;
63943;SDS011;50121;51.218;7.664;2023-07-29T14:39:48;8.25;;;7.65;;
63943;SDS011;50121;51.218;7.664;2023-07-29T14:42:16;7.57;;;6.97;;
63943;SDS011;50121;51.218;7.664;2023-07-29T14:44:43;7.10;;;6.70;;
63943;SDS011;50121;51.218;7.664;2023-07-29T14:47:11;7.32;;;6.80;;
63943;SDS011;50121;51.218;7.664;2023-07-29T14:49:39;7.95;;;7.25;;
63943;SDS011;50121;51.218;7.664;2023-07-29T14:52:06;7.35;;;6.95;;
63943;SDS011;50121;51.218;7.664;2023-07-29T14:54:34;6.72;;;6.30;;
63943;SDS011;50121;51.218;7.664;2023-07-29T14:57:05;7.25;;;6.75;;
63943;SDS011;50121;51.218;7.664;2023-07-29T14:59:33;8.98;;;8.32;;
63943;SDS011;50121;51.218;7.664;2023-07-29T15:02:01;7.75;;;7.10;;
63943;SDS011;50121;51.218;7.664;2023-07-29T15:04:35;7.95;;;7.45;;
63943;SDS011;50121;51.218;7.664;2023-07-29T15:07:03;7.90;;;7.40;;
63943;SDS011;50121;51.218;7.664;2023-07-29T15:09:30;7.68;;;7.28;;
63943;SDS011;50121;51.218;7.664;2023-07-29T15:11:58;7.18;;;6.68;;
63943;SDS011;50121;51.218;7.664;2023-07-29T15:14:26;8.07;;;7.57;;
63943;SDS011;50121;51.218;7.664;2023-07-29T15:16:53;10.88;;;9.90;;
63943;SDS011;50121;51.218;7.664;2023-07-29T15:19:21;7.65;;;7.20;;